Aeroporto :
LOGIN :

Iscrizione | Disclaimer

   EN    FR    IT 

 










Sommario :    VFR   VFR Marginale   IFR   IFR Intensivo   IFR Molto Intensivo
Visibilità : 
Base nubi : 
>= 8 km
>= 3000ft
5 / 8 km
1000 / 3000 ft
1500m / 5 km
500 / 1000 ft
800 / 1500m
200 / 500 ft
< 800m
< 200 ft
Simboli :   Temporali  Nebbia  Neve Forte  Precipitazioni Forti  Vento > 20 kt
SIGMETs :   Varie  Temporali  Ghiacco  Turbolenza  Onda orograficha  Ceneri Vulcaniche






- Altitudine del aeroporto : 1020 ft
- Codice IATA : ILZ


LZZI - Žilina

ULTIMO METAR :
  • 221530Z VRB03KT 9999 BKN032 11/05 Q1015

METARs OBSOLETI :
  • 221500Z VRB02KT 9999 BKN030 11/05 Q1015
  • 221430Z VRB03KT 9999 BKN031 11/05 Q1015
  • 221400Z 14006KT 090V200 9999 FEW033 SCT040 BKN090 11/05 Q1015
  • 221330Z 16007KT 130V200 9999 FEW032 SCT035 BKN070 12/05 Q1015
  • 221300Z 17006KT 080V210 9999 FEW032 SCT037 BKN090 12/05 Q1015
  • 221230Z 18007KT 130V230 9999 FEW031 SCT035 BKN090 12/05 Q1015

TAF TAF LZZI
Valido dal 22 a 15 ore il 23 a 00 ore UTC


221400Z 2215/2300 16008KT 9999 SCT035 BKN090
BECMG 2216/2218 VRB02KT SCT025



MetMap, La meteo Aeronautica in un colpo d'occhio ! - Copyright ORBIFLY Dicembre 2007 - Disclaimer

ORBIFLY MET'MAP TEAM :

Programmazione e sviluppo : Alexandra Zaïnal
Concezione e sviluppo : Baudouin d'Aumeries
Co-Programmazione e sviluppo : Marc-Olivier Méhu
Supporto tecnico e logistico : Manuel Goepfert
Aiuto per la traduzione : Arnaldo La Scala

Contatto : metmap@orbifly.com




FONTI E CREDITI :

   NOAA